sensor_id;sensor_type;location;lat;lon;timestamp;pressure;altitude;pressure_sealevel;temperature;humidity
66880;BME280;53789;51.392;10.234;2023-04-02T00:00:19;97480.63;;;6.04;80.53
66880;BME280;53789;51.392;10.234;2023-04-02T00:01:24;97479.53;;;6.05;80.44
66880;BME280;53789;51.392;10.234;2023-04-02T00:01:45;97480.34;;;6.06;80.54
66880;BME280;53789;51.392;10.234;2023-04-02T00:03:07;97479.00;;;6.03;80.32
66880;BME280;53789;51.392;10.234;2023-04-02T00:04:01;97480.63;;;6.04;80.30
66880;BME280;53789;51.392;10.234;2023-04-02T00:04:22;97488.53;;;6.06;80.30
66880;BME280;53789;51.392;10.234;2023-04-02T00:04:43;97480.63;;;6.04;80.41
66880;BME280;53789;51.392;10.234;2023-04-02T00:05:56;97489.63;;;6.04;80.31
66880;BME280;53789;51.392;10.234;2023-04-02T00:06:45;97485.50;;;6.07;80.65
66880;BME280;53789;51.392;10.234;2023-04-02T00:07:38;97491.78;;;6.08;80.68
66880;BME280;53789;51.392;10.234;2023-04-02T00:08:19;97487.13;;;6.08;80.25
66880;BME280;53789;51.392;10.234;2023-04-02T00:08:40;97492.59;;;6.08;80.24
66880;BME280;53789;51.392;10.234;2023-04-02T00:09:19;97495.81;;;6.10;79.68
66880;BME280;53789;51.392;10.234;2023-04-02T00:09:41;97486.03;;;6.09;79.15
66880;BME280;53789;51.392;10.234;2023-04-02T00:10:01;97489.56;;;6.10;79.04
66880;BME280;53789;51.392;10.234;2023-04-02T00:10:32;97491.78;;;6.08;78.38
66880;BME280;53789;51.392;10.234;2023-04-02T00:10:59;97491.78;;;6.08;78.93
66880;BME280;53789;51.392;10.234;2023-04-02T00:11:30;97502.97;;;6.06;79.50
66880;BME280;53789;51.392;10.234;2023-04-02T00:11:52;97492.06;;;6.06;78.82
66880;BME280;53789;51.392;10.234;2023-04-02T00:12:18;97499.44;;;6.06;79.04
66880;BME280;53789;51.392;10.234;2023-04-02T00:12:38;97493.78;;;6.02;78.85
66880;BME280;53789;51.392;10.234;2023-04-02T00:13:44;97493.63;;;5.93;78.86
66880;BME280;53789;51.392;10.234;2023-04-02T00:13:45;97504.47;;;5.98;78.56
66880;BME280;53789;51.392;10.234;2023-04-02T00:14:15;97500.97;;;5.93;79.60
66880;BME280;53789;51.392;10.234;2023-04-02T00:14:37;97503.19;;;5.91;79.56
66880;BME280;53789;51.392;10.234;2023-04-02T00:14:57;97498.34;;;5.88;79.60
66880;BME280;53789;51.392;10.234;2023-04-02T00:15:17;97510.34;;;5.86;79.44
66880;BME280;53789;51.392;10.234;2023-04-02T00:15:43;97509.84;;;5.84;79.56
66880;BME280;53789;51.392;10.234;2023-04-02T00:16:11;97509.03;;;5.84;79.25
66880;BME280;53789;51.392;10.234;2023-04-02T00:16:32;97505.47;;;5.83;79.88
66880;BME280;53789;51.392;10.234;2023-04-02T00:17:00;97507.41;;;5.83;80.40
66880;BME280;53789;51.392;10.234;2023-04-02T00:17:23;97509.84;;;5.84;80.24
66880;BME280;53789;51.392;10.234;2023-04-02T00:17:43;97505.47;;;5.83;80.32
66880;BME280;53789;51.392;10.234;2023-04-02T00:18:05;97508.22;;;5.83;80.21
66880;BME280;53789;51.392;10.234;2023-04-02T00:18:26;97513.38;;;5.85;80.81
66880;BME280;53789;51.392;10.234;2023-04-02T00:18:51;97510.63;;;5.85;80.22
66880;BME280;53789;51.392;10.234;2023-04-02T00:19:29;97514.19;;;5.85;81.11
66880;BME280;53789;51.392;10.234;2023-04-02T00:19:57;97511.47;;;5.85;80.57
66880;BME280;53789;51.392;10.234;2023-04-02T00:20:21;97507.63;;;5.86;80.56
66880;BME280;53789;51.392;10.234;2023-04-02T00:20:46;97517.44;;;5.88;80.43
66880;BME280;53789;51.392;10.234;2023-04-02T00:21:25;97516.03;;;5.90;81.18
66880;BME280;53789;51.392;10.234;2023-04-02T00:21:47;97516.03;;;5.90;79.99
66880;BME280;53789;51.392;10.234;2023-04-02T00:22:17;97514.13;;;5.91;80.31
66880;BME280;53789;51.392;10.234;2023-04-02T00:22:43;97521.22;;;5.92;80.29
66880;BME280;53789;51.392;10.234;2023-04-02T00:23:04;97522.00;;;5.92;80.81
66880;BME280;53789;51.392;10.234;2023-04-02T00:23:25;97514.63;;;5.93;80.00
66880;BME280;53789;51.392;10.234;2023-04-02T00:23:47;97520.63;;;5.95;80.48
66880;BME280;53789;51.392;10.234;2023-04-02T00:24:16;97527.72;;;5.96;80.39
66880;BME280;53789;51.392;10.234;2023-04-02T00:24:38;97522.25;;;5.96;79.68
66880;BME280;53789;51.392;10.234;2023-04-02T00:25:03;97523.94;;;5.92;79.24
66880;BME280;53789;51.392;10.234;2023-04-02T00:25:29;97521.22;;;5.92;79.20
66880;BME280;53789;51.392;10.234;2023-04-02T00:25:49;97520.38;;;5.91;79.10
66880;BME280;53789;51.392;10.234;2023-04-02T00:26:34;97522.81;;;5.93;80.42
66880;BME280;53789;51.392;10.234;2023-04-02T00:26:55;97526.66;;;5.92;79.83
66880;BME280;53789;51.392;10.234;2023-04-02T00:27:15;97529.41;;;5.92;79.79
66880;BME280;53789;51.392;10.234;2023-04-02T00:27:36;97530.19;;;5.92;80.11
66880;BME280;53789;51.392;10.234;2023-04-02T00:27:56;97530.19;;;5.92;80.16
66880;BME280;53789;51.392;10.234;2023-04-02T00:28:19;97532.13;;;5.92;79.21
66880;BME280;53789;51.392;10.234;2023-04-02T00:28:40;97531.28;;;5.91;79.05
66880;BME280;53789;51.392;10.234;2023-04-02T00:29:03;97534.84;;;5.92;80.04
66880;BME280;53789;51.392;10.234;2023-04-02T00:29:24;97531.00;;;5.93;79.39
66880;BME280;53789;51.392;10.234;2023-04-02T00:29:49;97532.94;;;5.92;80.25
66880;BME280;53789;51.392;10.234;2023-04-02T00:30:11;97532.13;;;5.92;79.61
66880;BME280;53789;51.392;10.234;2023-04-02T00:30:32;97533.72;;;5.93;80.46
66880;BME280;53789;51.392;10.234;2023-04-02T00:30:58;97534.56;;;5.93;80.17
66880;BME280;53789;51.392;10.234;2023-04-02T00:31:19;97535.38;;;5.94;79.84
66880;BME280;53789;51.392;10.234;2023-04-02T00:31:42;97536.47;;;5.93;79.82
66880;BME280;53789;51.392;10.234;2023-04-02T00:32:03;97531.84;;;5.93;80.37
66880;BME280;53789;51.392;10.234;2023-04-02T00:32:27;97533.44;;;5.94;79.64
66880;BME280;53789;51.392;10.234;2023-04-02T00:32:48;97535.38;;;5.94;80.63
66880;BME280;53789;51.392;10.234;2023-04-02T00:33:16;97538.09;;;5.94;79.53
66880;BME280;53789;51.392;10.234;2023-04-02T00:33:37;97536.16;;;5.94;79.41
66880;BME280;53789;51.392;10.234;2023-04-02T00:34:00;97537.00;;;5.95;79.68
66880;BME280;53789;51.392;10.234;2023-04-02T00:34:36;97538.63;;;5.96;80.69
66880;BME280;53789;51.392;10.234;2023-04-02T00:34:58;97530.44;;;5.96;80.77
66880;BME280;53789;51.392;10.234;2023-04-02T00:35:26;97535.59;;;5.97;80.60
66880;BME280;53789;51.392;10.234;2023-04-02T00:35:49;97538.63;;;5.96;80.13
66880;BME280;53789;51.392;10.234;2023-04-02T00:36:10;97533.44;;;5.94;79.24
66880;BME280;53789;51.392;10.234;2023-04-02T00:36:32;97537.00;;;5.95;79.56
66880;BME280;53789;51.392;10.234;2023-04-02T00:36:53;97543.25;;;5.95;79.75
66880;BME280;53789;51.392;10.234;2023-04-02T00:37:18;97539.72;;;5.95;80.34
66880;BME280;53789;51.392;10.234;2023-04-02T00:37:39;97541.38;;;5.96;80.78
66880;BME280;53789;51.392;10.234;2023-04-02T00:38:00;97536.69;;;5.96;80.19
66880;BME280;53789;51.392;10.234;2023-04-02T00:38:31;97535.59;;;5.97;80.02
66880;BME280;53789;51.392;10.234;2023-04-02T00:38:57;97539.13;;;5.98;79.91
66880;BME280;53789;51.392;10.234;2023-04-02T00:39:23;97541.88;;;5.98;80.45
66880;BME280;53789;51.392;10.234;2023-04-02T00:39:45;97536.41;;;5.98;79.52
66880;BME280;53789;51.392;10.234;2023-04-02T00:40:27;97541.06;;;5.97;79.03
66880;BME280;53789;51.392;10.234;2023-04-02T00:40:50;97535.59;;;5.97;79.93
66880;BME280;53789;51.392;10.234;2023-04-02T00:41:17;97540.25;;;5.97;79.22
66880;BME280;53789;51.392;10.234;2023-04-02T00:41:41;97537.00;;;5.95;78.70
66880;BME280;53789;51.392;10.234;2023-04-02T00:42:02;97537.81;;;5.95;78.72
66880;BME280;53789;51.392;10.234;2023-04-02T00:42:23;97542.47;;;5.95;78.77
66880;BME280;53789;51.392;10.234;2023-04-02T00:42:45;97548.72;;;5.95;79.33
66880;BME280;53789;51.392;10.234;2023-04-02T00:43:07;97540.81;;;5.94;79.95
66880;BME280;53789;51.392;10.234;2023-04-02T00:43:31;97545.19;;;5.95;79.52
66880;BME280;53789;51.392;10.234;2023-04-02T00:43:55;97547.09;;;5.94;80.20
66880;BME280;53789;51.392;10.234;2023-04-02T00:44:17;97546.28;;;5.94;79.75
66880;BME280;53789;51.392;10.234;2023-04-02T00:44:40;97543.25;;;5.95;79.70
66880;BME280;53789;51.392;10.234;2023-04-02T00:45:02;97540.53;;;5.95;79.72
66880;BME280;53789;51.392;10.234;2023-04-02T00:45:27;97550.66;;;5.95;79.15
66880;BME280;53789;51.392;10.234;2023-04-02T00:45:54;97549.56;;;5.96;80.00
66880;BME280;53789;51.392;10.234;2023-04-02T00:46:20;97546.81;;;5.96;80.19
66880;BME280;53789;51.392;10.234;2023-04-02T00:46:43;97542.97;;;5.97;80.41
66880;BME280;53789;51.392;10.234;2023-04-02T00:47:26;97544.34;;;5.94;78.77
66880;BME280;53789;51.392;10.234;2023-04-02T00:47:51;97549.31;;;5.92;79.31
66880;BME280;53789;51.392;10.234;2023-04-02T00:49:10;97550.47;;;5.86;79.20
66880;BME280;53789;51.392;10.234;2023-04-02T00:49:40;97553.22;;;5.86;80.10
66880;BME280;53789;51.392;10.234;2023-04-02T00:50:23;97554.31;;;5.85;80.06
66880;BME280;53789;51.392;10.234;2023-04-02T00:50:47;97557.34;;;5.83;79.91
66880;BME280;53789;51.392;10.234;2023-04-02T00:51:13;97561.16;;;5.82;79.55
66880;BME280;53789;51.392;10.234;2023-04-02T00:51:43;97560.34;;;5.82;79.09
66880;BME280;53789;51.392;10.234;2023-04-02T00:52:12;97557.63;;;5.82;79.51
66880;BME280;53789;51.392;10.234;2023-04-02T00:52:34;97552.72;;;5.84;80.49
66880;BME280;53789;51.392;10.234;2023-04-02T00:52:57;97558.97;;;5.84;79.79
66880;BME280;53789;51.392;10.234;2023-04-02T00:53:30;97567.16;;;5.84;79.67
66880;BME280;53789;51.392;10.234;2023-04-02T00:53:54;97558.16;;;5.84;79.10
66880;BME280;53789;51.392;10.234;2023-04-02T00:54:19;97560.34;;;5.82;78.80
66880;BME280;53789;51.392;10.234;2023-04-02T00:54:50;97562.88;;;5.78;78.95
66880;BME280;53789;51.392;10.234;2023-04-02T00:55:30;97565.31;;;5.80;79.22
66880;BME280;53789;51.392;10.234;2023-04-02T00:55:52;97562.31;;;5.76;78.69
66880;BME280;53789;51.392;10.234;2023-04-02T00:56:23;97565.06;;;5.76;78.64
66880;BME280;53789;51.392;10.234;2023-04-02T00:56:47;97566.97;;;5.76;78.81
66880;BME280;53789;51.392;10.234;2023-04-02T00:57:18;97575.47;;;5.74;79.23
66880;BME280;53789;51.392;10.234;2023-04-02T00:57:43;97567.84;;;5.71;79.10
66880;BME280;53789;51.392;10.234;2023-04-02T00:58:18;97569.53;;;5.67;78.94
66880;BME280;53789;51.392;10.234;2023-04-02T00:58:42;97558.91;;;5.65;78.73
66880;BME280;53789;51.392;10.234;2023-04-02T00:59:04;97576.09;;;5.66;78.84
66880;BME280;53789;51.392;10.234;2023-04-02T01:00:48;97576.66;;;5.63;79.05
66880;BME280;53789;51.392;10.234;2023-04-02T01:01:17;97574.22;;;5.61;79.30
66880;BME280;53789;51.392;10.234;2023-04-02T01:01:37;97578.63;;;5.57;77.88
66880;BME280;53789;51.392;10.234;2023-04-02T01:02:20;97581.66;;;5.56;78.71
66880;BME280;53789;51.392;10.234;2023-04-02T01:02:40;97583.59;;;5.55;79.10
66880;BME280;53789;51.392;10.234;2023-04-02T01:03:36;97582.78;;;5.55;79.96
66880;BME280;53789;51.392;10.234;2023-04-02T01:03:59;97582.78;;;5.55;79.74
66880;BME280;53789;51.392;10.234;2023-04-02T01:04:52;97585.50;;;5.55;80.24
66880;BME280;53789;51.392;10.234;2023-04-02T01:05:34;97584.97;;;5.53;78.99
66880;BME280;53789;51.392;10.234;2023-04-02T01:05:59;97585.53;;;5.49;78.41
66880;BME280;53789;51.392;10.234;2023-04-02T01:06:20;97583.94;;;5.48;79.15
66880;BME280;53789;51.392;10.234;2023-04-02T01:06:41;97583.94;;;5.48;78.88
66880;BME280;53789;51.392;10.234;2023-04-02T01:07:06;97584.75;;;5.49;80.13
66880;BME280;53789;51.392;10.234;2023-04-02T01:08:21;97589.09;;;5.50;78.85
66880;BME280;53789;51.392;10.234;2023-04-02T01:09:17;97586.97;;;5.47;78.70
66880;BME280;53789;51.392;10.234;2023-04-02T01:10:52;97583.13;;;5.48;80.14
66880;BME280;53789;51.392;10.234;2023-04-02T01:12:12;97585.66;;;5.39;77.84
66880;BME280;53789;51.392;10.234;2023-04-02T01:15:34;97592.84;;;5.30;79.01
66880;BME280;53789;51.392;10.234;2023-04-02T01:16:10;97587.09;;;5.31;79.05
66880;BME280;53789;51.392;10.234;2023-04-02T01:21:17;97606.72;;;5.33;79.55
66880;BME280;53789;51.392;10.234;2023-04-02T01:22:50;97611.03;;;5.40;79.29
66880;BME280;53789;51.392;10.234;2023-04-02T01:23:44;97603.38;;;5.42;79.44
66880;BME280;53789;51.392;10.234;2023-04-02T01:24:01;97613.19;;;5.43;79.66
66880;BME280;53789;51.392;10.234;2023-04-02T01:24:29;97609.34;;;5.44;79.46
66880;BME280;53789;51.392;10.234;2023-04-02T01:24:55;97613.97;;;5.43;80.86
66880;BME280;53789;51.392;10.234;2023-04-02T01:25:23;97618.84;;;5.46;80.63
66880;BME280;53789;51.392;10.234;2023-04-02T01:25:57;97612.59;;;5.46;79.75
66880;BME280;53789;51.392;10.234;2023-04-02T01:26:47;97613.94;;;5.48;79.78
66880;BME280;53789;51.392;10.234;2023-04-02T01:27:45;97610.63;;;5.52;78.56
66880;BME280;53789;51.392;10.234;2023-04-02T01:28:18;97620.44;;;5.53;78.38
66880;BME280;53789;51.392;10.234;2023-04-02T01:29:53;97615.25;;;5.51;79.14
66880;BME280;53789;51.392;10.234;2023-04-02T01:30:16;97609.00;;;5.50;78.63
66880;BME280;53789;51.392;10.234;2023-04-02T01:30:37;97624.56;;;5.50;78.37
66880;BME280;53789;51.392;10.234;2023-04-02T01:31:00;97618.28;;;5.49;78.85
66880;BME280;53789;51.392;10.234;2023-04-02T01:31:22;97617.47;;;5.49;78.43
66880;BME280;53789;51.392;10.234;2023-04-02T01:31:45;97625.66;;;5.49;78.28
66880;BME280;53789;51.392;10.234;2023-04-02T01:32:16;97625.41;;;5.45;77.49
66880;BME280;53789;51.392;10.234;2023-04-02T01:32:39;97624.59;;;5.45;78.67
66880;BME280;53789;51.392;10.234;2023-04-02T01:32:59;97627.03;;;5.46;78.91
66880;BME280;53789;51.392;10.234;2023-04-02T01:33:29;97621.59;;;5.46;78.82
66880;BME280;53789;51.392;10.234;2023-04-02T01:33:51;97627.34;;;5.45;78.53
66880;BME280;53789;51.392;10.234;2023-04-02T01:34:19;97625.41;;;5.45;79.26
66880;BME280;53789;51.392;10.234;2023-04-02T01:34:42;97628.13;;;5.45;78.53
66880;BME280;53789;51.392;10.234;2023-04-02T01:35:05;97634.41;;;5.46;79.21
66880;BME280;53789;51.392;10.234;2023-04-02T01:35:32;97629.78;;;5.46;79.24
66880;BME280;53789;51.392;10.234;2023-04-02T01:38:05;97633.59;;;5.45;78.33
66880;BME280;53789;51.392;10.234;2023-04-02T01:38:40;97636.88;;;5.47;78.80
66880;BME280;53789;51.392;10.234;2023-04-02T01:39:59;97640.97;;;5.45;78.40
66880;BME280;53789;51.392;10.234;2023-04-02T01:40:46;97638.25;;;5.45;78.64
66880;BME280;53789;51.392;10.234;2023-04-02T01:41:31;97650.78;;;5.46;79.40
66880;BME280;53789;51.392;10.234;2023-04-02T01:42:01;97651.06;;;5.44;79.42
66880;BME280;53789;51.392;10.234;2023-04-02T01:44:11;97646.69;;;5.48;79.24
66880;BME280;53789;51.392;10.234;2023-04-02T01:44:43;97647.47;;;5.49;79.20
66880;BME280;53789;51.392;10.234;2023-04-02T01:45:17;97652.66;;;5.50;78.91
66880;BME280;53789;51.392;10.234;2023-04-02T01:45:38;97659.19;;;5.49;78.11
66880;BME280;53789;51.392;10.234;2023-04-02T01:46:04;97660.84;;;5.50;78.76
66880;BME280;53789;51.392;10.234;2023-04-02T01:46:30;97654.56;;;5.50;78.33
66880;BME280;53789;51.392;10.234;2023-04-02T01:46:51;97654.03;;;5.48;77.80
66880;BME280;53789;51.392;10.234;2023-04-02T01:47:14;97653.22;;;5.47;77.89
66880;BME280;53789;51.392;10.234;2023-04-02T01:47:37;97660.59;;;5.47;77.92
66880;BME280;53789;51.392;10.234;2023-04-02T01:47:58;97661.69;;;5.46;78.25
66880;BME280;53789;51.392;10.234;2023-04-02T01:48:23;97662.00;;;5.44;77.76
66880;BME280;53789;51.392;10.234;2023-04-02T01:48:44;97666.31;;;5.45;77.56
66880;BME280;53789;51.392;10.234;2023-04-02T01:49:15;97665.00;;;5.43;77.45
66880;BME280;53789;51.392;10.234;2023-04-02T01:49:37;97670.75;;;5.41;77.60
66880;BME280;53789;51.392;10.234;2023-04-02T01:50:04;97660.41;;;5.38;77.99
66880;BME280;53789;51.392;10.234;2023-04-02T01:50:35;97660.69;;;5.37;77.75
66880;BME280;53789;51.392;10.234;2023-04-02T01:50:59;97669.69;;;5.37;78.87
66880;BME280;53789;51.392;10.234;2023-04-02T01:51:29;97671.59;;;5.37;78.81
66880;BME280;53789;51.392;10.234;2023-04-02T01:51:53;97670.47;;;5.38;79.19
66880;BME280;53789;51.392;10.234;2023-04-02T01:52:33;97672.41;;;5.37;78.22
66880;BME280;53789;51.392;10.234;2023-04-02T01:52:59;97669.69;;;5.37;78.22
66880;BME280;53789;51.392;10.234;2023-04-02T01:53:24;97672.41;;;5.37;77.85
66880;BME280;53789;51.392;10.234;2023-04-02T01:53:46;97673.50;;;5.36;77.78
66880;BME280;53789;51.392;10.234;2023-04-02T01:54:07;97675.44;;;5.36;78.68
66880;BME280;53789;51.392;10.234;2023-04-02T01:54:28;97675.13;;;5.37;78.63
66880;BME280;53789;51.392;10.234;2023-04-02T01:54:50;97674.34;;;5.37;78.43
66880;BME280;53789;51.392;10.234;2023-04-02T01:55:13;97674.34;;;5.37;78.66
66880;BME280;53789;51.392;10.234;2023-04-02T01:55:43;97671.06;;;5.35;77.96
66880;BME280;53789;51.392;10.234;2023-04-02T01:56:04;97671.91;;;5.35;78.53
66880;BME280;53789;51.392;10.234;2023-04-02T01:56:26;97674.06;;;5.33;78.95
66880;BME280;53789;51.392;10.234;2023-04-02T01:56:47;97674.88;;;5.33;78.39
66880;BME280;53789;51.392;10.234;2023-04-02T01:57:09;97677.59;;;5.33;78.46
66880;BME280;53789;51.392;10.234;2023-04-02T01:57:30;97677.59;;;5.33;79.12
66880;BME280;53789;51.392;10.234;2023-04-02T01:57:53;97672.16;;;5.33;78.67
66880;BME280;53789;51.392;10.234;2023-04-02T01:58:17;97681.16;;;5.34;78.70
66880;BME280;53789;51.392;10.234;2023-04-02T01:58:38;97683.91;;;5.34;77.70
66880;BME280;53789;51.392;10.234;2023-04-02T01:58:59;97683.91;;;5.34;78.24
66880;BME280;53789;51.392;10.234;2023-04-02T01:59:21;97681.16;;;5.34;78.62
66880;BME280;53789;51.392;10.234;2023-04-02T01:59:43;97676.50;;;5.35;78.92
66880;BME280;53789;51.392;10.234;2023-04-02T02:00:04;97682.81;;;5.35;79.43
66880;BME280;53789;51.392;10.234;2023-04-02T02:00:27;97676.50;;;5.35;79.83
66880;BME280;53789;51.392;10.234;2023-04-02T02:01:26;97678.16;;;5.36;79.79
66880;BME280;53789;51.392;10.234;2023-04-02T02:02:03;97687.97;;;5.37;78.39
66880;BME280;53789;51.392;10.234;2023-04-02T02:02:25;97689.06;;;5.36;77.40
66880;BME280;53789;51.392;10.234;2023-04-02T02:02:48;97684.97;;;5.33;77.56
66880;BME280;53789;51.392;10.234;2023-04-02T02:03:11;97690.72;;;5.31;77.10
66880;BME280;53789;51.392;10.234;2023-04-02T02:03:33;97689.09;;;5.30;76.39
66880;BME280;53789;51.392;10.234;2023-04-02T02:03:53;97690.22;;;5.29;77.53
66880;BME280;53789;51.392;10.234;2023-04-02T02:04:15;97694.81;;;5.29;77.22
66880;BME280;53789;51.392;10.234;2023-04-02T02:04:37;97690.50;;;5.28;77.32
66880;BME280;53789;51.392;10.234;2023-04-02T02:04:58;97693.78;;;5.25;77.09
66880;BME280;53789;51.392;10.234;2023-04-02T02:05:21;97693.25;;;5.23;77.08
66880;BME280;53789;51.392;10.234;2023-04-02T02:05:42;97698.97;;;5.21;77.52
66880;BME280;53789;51.392;10.234;2023-04-02T02:06:04;97688.09;;;5.21;77.76
66880;BME280;53789;51.392;10.234;2023-04-02T02:06:25;97698.97;;;5.21;78.00
66880;BME280;53789;51.392;10.234;2023-04-02T02:06:46;97694.63;;;5.20;79.10
66880;BME280;53789;51.392;10.234;2023-04-02T02:07:14;97698.19;;;5.21;78.95
66880;BME280;53789;51.392;10.234;2023-04-02T02:07:35;97695.47;;;5.21;79.54
66880;BME280;53789;51.392;10.234;2023-04-02T02:07:57;97694.34;;;5.22;79.40
66880;BME280;53789;51.392;10.234;2023-04-02T02:08:58;97699.78;;;5.22;79.70
66880;BME280;53789;51.392;10.234;2023-04-02T02:09:24;97705.25;;;5.22;79.63
66880;BME280;53789;51.392;10.234;2023-04-02T02:09:47;97699.53;;;5.23;79.29
66880;BME280;53789;51.392;10.234;2023-04-02T02:10:23;97703.06;;;5.24;78.64
66880;BME280;53789;51.392;10.234;2023-04-02T02:10:44;97710.97;;;5.25;78.69
66880;BME280;53789;51.392;10.234;2023-04-02T02:11:09;97708.22;;;5.25;78.84
66880;BME280;53789;51.392;10.234;2023-04-02T02:11:33;97707.44;;;5.25;78.20
66880;BME280;53789;51.392;10.234;2023-04-02T02:11:56;97709.03;;;5.26;78.26
66880;BME280;53789;51.392;10.234;2023-04-02T02:12:17;97706.31;;;5.26;78.82
66880;BME280;53789;51.392;10.234;2023-04-02T02:12:37;97709.03;;;5.26;79.77
66880;BME280;53789;51.392;10.234;2023-04-02T02:12:57;97706.31;;;5.26;79.63
66880;BME280;53789;51.392;10.234;2023-04-02T02:13:19;97709.88;;;5.26;79.60
66880;BME280;53789;51.392;10.234;2023-04-02T02:13:45;97716.41;;;5.25;77.69
66880;BME280;53789;51.392;10.234;2023-04-02T02:14:14;97712.09;;;5.19;77.62
66880;BME280;53789;51.392;10.234;2023-04-02T02:14:35;97710.97;;;5.20;77.57
66880;BME280;53789;51.392;10.234;2023-04-02T02:14:56;97714.81;;;5.19;77.80
66880;BME280;53789;51.392;10.234;2023-04-02T02:15:20;97712.09;;;5.19;77.93
66880;BME280;53789;51.392;10.234;2023-04-02T02:15:40;97709.66;;;5.18;79.08
66880;BME280;53789;51.392;10.234;2023-04-02T02:16:03;97714.81;;;5.19;79.63
66880;BME280;53789;51.392;10.234;2023-04-02T02:16:25;97717.84;;;5.18;79.00
66880;BME280;53789;51.392;10.234;2023-04-02T02:16:47;97708.03;;;5.17;78.31
66880;BME280;53789;51.392;10.234;2023-04-02T02:17:14;97716.50;;;5.15;78.18
66880;BME280;53789;51.392;10.234;2023-04-02T02:17:35;97713.75;;;5.15;78.17
66880;BME280;53789;51.392;10.234;2023-04-02T02:18:02;97711.03;;;5.15;78.30
66880;BME280;53789;51.392;10.234;2023-04-02T02:18:25;97721.41;;;5.13;77.88
66880;BME280;53789;51.392;10.234;2023-04-02T02:18:50;97724.16;;;5.13;78.46
66880;BME280;53789;51.392;10.234;2023-04-02T02:19:22;97723.31;;;5.12;78.38
66880;BME280;53789;51.392;10.234;2023-04-02T02:19:48;97718.16;;;5.11;78.25
66880;BME280;53789;51.392;10.234;2023-04-02T02:20:12;97723.59;;;5.11;78.35
66880;BME280;53789;51.392;10.234;2023-04-02T02:20:34;97719.53;;;5.08;77.46
66880;BME280;53789;51.392;10.234;2023-04-02T02:20:58;97713.53;;;5.06;76.92
66880;BME280;53789;51.392;10.234;2023-04-02T02:21:50;97723.09;;;5.04;76.87
66880;BME280;53789;51.392;10.234;2023-04-02T02:22:48;97726.69;;;4.99;77.29
66880;BME280;53789;51.392;10.234;2023-04-02T02:23:11;97719.59;;;4.98;78.80
66880;BME280;53789;51.392;10.234;2023-04-02T02:23:33;97727.75;;;4.98;78.26
66880;BME280;53789;51.392;10.234;2023-04-02T02:23:54;97729.13;;;4.95;77.37
66880;BME280;53789;51.392;10.234;2023-04-02T02:24:30;97731.59;;;4.92;76.75
66880;BME280;53789;51.392;10.234;2023-04-02T02:24:53;97728.06;;;4.86;76.71
66880;BME280;53789;51.392;10.234;2023-04-02T02:25:21;97733.53;;;4.86;77.31
66880;BME280;53789;51.392;10.234;2023-04-02T02:25:45;97737.66;;;4.84;77.30
66880;BME280;53789;51.392;10.234;2023-04-02T02:26:06;97732.47;;;4.82;77.81
66880;BME280;53789;51.392;10.234;2023-04-02T02:26:29;97732.47;;;4.82;77.81
66880;BME280;53789;51.392;10.234;2023-04-02T02:27:47;97731.66;;;4.81;78.48
66880;BME280;53789;51.392;10.234;2023-04-02T02:28:20;97738.22;;;4.80;77.95
66880;BME280;53789;51.392;10.234;2023-04-02T02:28:46;97736.56;;;4.79;78.68
66880;BME280;53789;51.392;10.234;2023-04-02T02:29:16;97742.53;;;4.81;79.11
66880;BME280;53789;51.392;10.234;2023-04-02T02:29:40;97737.66;;;4.78;78.97
66880;BME280;53789;51.392;10.234;2023-04-02T02:30:26;97739.81;;;4.81;79.53
66880;BME280;53789;51.392;10.234;2023-04-02T02:31:23;97739.81;;;4.81;79.69
66880;BME280;53789;51.392;10.234;2023-04-02T02:31:53;97740.38;;;4.84;79.60
66880;BME280;53789;51.392;10.234;2023-04-02T02:32:18;97737.66;;;4.84;79.13
66880;BME280;53789;51.392;10.234;2023-04-02T02:33:32;97747.69;;;4.88;78.71
66880;BME280;53789;51.392;10.234;2023-04-02T02:33:33;97743.63;;;4.86;78.37
66880;BME280;53789;51.392;10.234;2023-04-02T02:34:02;97749.06;;;4.86;77.66
66880;BME280;53789;51.392;10.234;2023-04-02T02:34:55;97741.69;;;4.86;78.59
66880;BME280;53789;51.392;10.234;2023-04-02T02:36:25;97749.34;;;4.84;78.17
66880;BME280;53789;51.392;10.234;2023-04-02T02:36:54;97747.44;;;4.85;78.60
66880;BME280;53789;51.392;10.234;2023-04-02T02:37:25;97749.06;;;4.86;79.07
66880;BME280;53789;51.392;10.234;2023-04-02T02:37:56;97754.81;;;4.84;78.11
66880;BME280;53789;51.392;10.234;2023-04-02T02:38:59;97749.63;;;4.83;78.13
66880;BME280;53789;51.392;10.234;2023-04-02T02:39:28;97755.09;;;4.83;77.84
66880;BME280;53789;51.392;10.234;2023-04-02T02:39:53;97748.00;;;4.81;78.47
66880;BME280;53789;51.392;10.234;2023-04-02T02:40:20;97752.34;;;4.83;78.57
66880;BME280;53789;51.392;10.234;2023-04-02T02:40:44;97755.38;;;4.81;78.35
66880;BME280;53789;51.392;10.234;2023-04-02T02:41:38;97760.53;;;4.83;78.97
66880;BME280;53789;51.392;10.234;2023-04-02T02:42:12;97759.44;;;4.84;79.60
66880;BME280;53789;51.392;10.234;2023-04-02T02:42:39;97757.81;;;4.83;78.25
66880;BME280;53789;51.392;10.234;2023-04-02T02:43:05;97762.75;;;4.80;77.77
66880;BME280;53789;51.392;10.234;2023-04-02T02:43:32;97757.28;;;4.80;78.65
66880;BME280;53789;51.392;10.234;2023-04-02T02:44:28;97755.59;;;4.85;79.07
66880;BME280;53789;51.392;10.234;2023-04-02T02:44:53;97764.91;;;4.84;78.29
66880;BME280;53789;51.392;10.234;2023-04-02T02:45:24;97766.78;;;4.83;78.16
66880;BME280;53789;51.392;10.234;2023-04-02T02:45:46;97757.81;;;4.83;78.12
66880;BME280;53789;51.392;10.234;2023-04-02T02:46:15;97765.69;;;4.84;78.54
66880;BME280;53789;51.392;10.234;2023-04-02T02:46:44;97773.88;;;4.84;77.94
66880;BME280;53789;51.392;10.234;2023-04-02T02:47:14;97768.16;;;4.86;77.87
66880;BME280;53789;51.392;10.234;2023-04-02T02:47:39;97770.34;;;4.84;76.97
66880;BME280;53789;51.392;10.234;2023-04-02T02:48:04;97766.78;;;4.83;77.05
66880;BME280;53789;51.392;10.234;2023-04-02T02:48:35;97775.81;;;4.84;77.88
66880;BME280;53789;51.392;10.234;2023-04-02T02:48:58;97774.44;;;4.81;76.54